createdAt,value
2022-08-03T00:00:00.093Z,13.43
2022-08-03T00:01:00.504Z,13.42
2022-08-03T00:02:01.133Z,13.37
2022-08-03T00:03:01.614Z,13.34
2022-08-03T00:04:02.266Z,13.32
2022-08-03T00:05:02.593Z,13.3
2022-08-03T00:06:04.206Z,13.29
2022-08-03T00:07:03.211Z,13.3
2022-08-03T00:08:04.471Z,13.26
2022-08-03T00:09:05.685Z,13.25
2022-08-03T00:10:05.241Z,13.26
2022-08-03T00:11:05.193Z,13.25
2022-08-03T00:12:06.420Z,13.24
2022-08-03T00:13:06.318Z,13.23
2022-08-03T00:14:06.942Z,13.21
2022-08-03T00:15:11.415Z,13.17
2022-08-03T00:16:09.012Z,13.16
2022-08-03T00:17:09.125Z,13.14
2022-08-03T00:18:09.934Z,13.1
2022-08-03T00:19:10.154Z,13.05
2022-08-03T00:20:11.394Z,13.06
2022-08-03T00:21:11.387Z,13.06
2022-08-03T00:22:11.296Z,13.04
2022-08-03T00:23:11.722Z,13.04
2022-08-03T00:24:12.222Z,13.07
2022-08-03T00:25:12.605Z,13.1
2022-08-03T00:26:13.060Z,13.09
2022-08-03T00:27:16.643Z,13.09
2022-08-03T00:28:14.200Z,13.08
2022-08-03T00:29:14.615Z,13.09
2022-08-03T00:30:15.440Z,13.04
2022-08-03T00:31:15.838Z,12.97
2022-08-03T00:32:16.400Z,12.94
2022-08-03T00:33:16.995Z,12.89
2022-08-03T00:34:16.900Z,12.81
2022-08-03T00:35:36.950Z,12.79
2022-08-03T00:36:21.937Z,12.82
2022-08-03T00:37:22.453Z,12.85
2022-08-03T00:38:23.379Z,12.86
2022-08-03T00:39:23.768Z,12.82
2022-08-03T00:40:24.829Z,12.81
2022-08-03T00:41:24.832Z,12.81
2022-08-03T00:42:28.538Z,12.81
2022-08-03T00:43:26.791Z,12.78
2022-08-03T00:44:26.695Z,12.76
2022-08-03T00:45:29.777Z,12.77
2022-08-03T00:46:27.536Z,12.79
2022-08-03T00:47:28.049Z,12.79
2022-08-03T00:48:33.198Z,12.81
2022-08-03T00:49:31.380Z,12.8
2022-08-03T00:50:34.826Z,12.78
2022-08-03T00:51:33.915Z,12.76
2022-08-03T00:52:33.201Z,12.74
2022-08-03T00:53:35.575Z,12.74
2022-08-03T00:54:36.295Z,12.72
2022-08-03T00:55:36.727Z,12.72
2022-08-03T00:56:35.993Z,12.7
2022-08-03T00:57:35.695Z,12.64
2022-08-03T00:58:36.104Z,12.6
2022-08-03T00:59:36.322Z,12.54
2022-08-03T01:00:39.194Z,12.52
2022-08-03T01:01:37.283Z,12.53
2022-08-03T01:02:39.312Z,12.51
2022-08-03T01:03:38.289Z,12.49
2022-08-03T01:04:38.704Z,12.41
2022-08-03T01:12:06.610Z,12.28
2022-08-03T01:16:15.746Z,12.32
2022-08-03T01:17:19.335Z,12.3
2022-08-03T01:20:20.873Z,12.24
2022-08-03T01:30:43.902Z,12.02
2022-08-03T01:37:03.293Z,11.98
2022-08-03T01:39:04.124Z,11.95
2022-08-03T01:40:03.411Z,11.94
2022-08-03T01:42:07.519Z,11.93
2022-08-03T01:43:08.038Z,11.88
2022-08-03T01:44:30.065Z,11.85
2022-08-03T01:45:08.862Z,11.83
2022-08-03T01:46:09.285Z,11.8
2022-08-03T01:47:08.894Z,11.82
2022-08-03T01:48:10.943Z,11.9
2022-08-03T01:49:11.088Z,11.96
2022-08-03T01:50:11.063Z,11.98
2022-08-03T01:51:10.660Z,11.98
2022-08-03T01:52:12.922Z,11.85
2022-08-03T01:53:13.332Z,11.82
2022-08-03T01:54:12.511Z,11.83
2022-08-03T01:55:13.544Z,11.83
2022-08-03T01:56:13.345Z,11.87
2022-08-03T01:57:13.153Z,11.88
2022-08-03T01:58:15.103Z,11.86
2022-08-03T01:59:16.754Z,11.87
2022-08-03T02:00:14.911Z,11.88
2022-08-03T02:01:17.043Z,11.85
2022-08-03T02:02:33.204Z,11.86
2022-08-03T02:03:18.531Z,11.88
2022-08-03T02:05:20.891Z,11.85
2022-08-03T02:07:01.615Z,11.88
2022-08-03T02:07:20.379Z,11.91
2022-08-03T02:08:20.595Z,11.94
2022-08-03T02:09:22.239Z,11.89
2022-08-03T02:10:35.489Z,11.89
2022-08-03T02:11:23.591Z,11.9
2022-08-03T02:12:28.399Z,11.91
2022-08-03T02:13:28.097Z,11.9
2022-08-03T02:14:28.311Z,11.89
2022-08-03T02:15:28.633Z,11.86
2022-08-03T02:16:31.395Z,11.85
2022-08-03T02:17:38.725Z,11.87
2022-08-03T02:18:34.490Z,11.85
2022-08-03T02:19:35.819Z,11.85
2022-08-03T02:20:34.812Z,11.83
2022-08-03T02:21:57.291Z,11.83
2022-08-03T02:22:36.052Z,11.82
2022-08-03T02:23:34.831Z,11.84
2022-08-03T02:24:35.352Z,11.87
2022-08-03T02:25:42.735Z,11.88
2022-08-03T02:26:42.841Z,11.89
2022-08-03T02:28:47.773Z,11.91
2022-08-03T02:29:46.742Z,11.91
2022-08-03T02:30:51.807Z,11.93
2022-08-03T02:31:49.321Z,11.91
2022-08-03T02:32:52.401Z,11.91
2022-08-03T02:33:57.621Z,11.92
2022-08-03T02:34:53.035Z,11.88
2022-08-03T02:35:52.920Z,11.86
2022-08-03T02:36:53.762Z,11.87
2022-08-03T02:37:54.680Z,11.89
2022-08-03T02:38:54.991Z,11.85
2022-08-03T02:40:01.050Z,11.89
2022-08-03T02:41:01.261Z,11.86
2022-08-03T02:42:01.471Z,11.82
2022-08-03T02:43:12.432Z,11.82
2022-08-03T02:44:06.673Z,11.83
2022-08-03T02:45:10.084Z,11.83
2022-08-03T02:46:12.040Z,11.79
2022-08-03T02:47:11.834Z,11.74
2022-08-03T02:48:12.967Z,11.71
2022-08-03T02:49:41.110Z,11.7
2022-08-03T02:50:17.228Z,11.67
2022-08-03T02:51:18.720Z,11.7
2022-08-03T02:52:18.798Z,11.7
2022-08-03T02:53:19.837Z,11.73
2022-08-03T02:54:20.182Z,11.75
2022-08-03T02:55:21.326Z,11.8
2022-08-03T02:56:20.496Z,11.84
2022-08-03T02:57:21.644Z,11.86
2022-08-03T02:58:21.140Z,11.89
2022-08-03T02:59:21.341Z,11.91
2022-08-03T03:00:27.814Z,11.91
2022-08-03T03:01:23.162Z,11.92
2022-08-03T03:02:22.183Z,11.96
2022-08-03T03:03:23.110Z,11.96
2022-08-03T03:04:24.195Z,11.98
2022-08-03T03:05:55.927Z,11.96
2022-08-03T03:06:30.604Z,11.95
2022-08-03T03:07:31.451Z,11.97
2022-08-03T03:08:32.871Z,11.96
2022-08-03T03:09:40.233Z,11.97
2022-08-03T03:10:34.419Z,12
2022-08-03T03:11:38.628Z,12.02
2022-08-03T03:12:40.874Z,12
2022-08-03T03:13:39.652Z,11.98
2022-08-03T03:14:39.461Z,11.99
2022-08-03T03:15:39.780Z,11.99
2022-08-03T03:16:42.041Z,11.98
2022-08-03T03:17:41.332Z,11.95
2022-08-03T03:18:41.541Z,11.92
2022-08-03T03:19:42.979Z,11.92
2022-08-03T03:20:41.760Z,11.9
2022-08-03T03:21:43.597Z,11.91
2022-08-03T03:22:43.504Z,11.91
2022-08-03T03:23:43.508Z,11.94
2022-08-03T03:24:44.348Z,11.98
2022-08-03T03:25:44.251Z,12.02
2022-08-03T03:26:44.664Z,12.07
2022-08-03T03:27:49.485Z,12.07
2022-08-03T03:28:48.764Z,12.11
2022-08-03T03:29:49.300Z,12.14
2022-08-03T03:30:52.777Z,12.18
2022-08-03T03:31:51.435Z,12.2
2022-08-03T03:32:52.591Z,12.23
2022-08-03T03:33:51.671Z,12.22
2022-08-03T03:34:52.405Z,12.23
2022-08-03T03:35:53.733Z,12.25
2022-08-03T03:36:52.894Z,12.27
2022-08-03T03:37:53.654Z,12.29
2022-08-03T03:38:53.921Z,12.35
2022-08-03T03:39:57.240Z,12.37
2022-08-03T03:40:55.500Z,12.42
2022-08-03T03:41:55.523Z,12.43
2022-08-03T03:42:55.830Z,12.44
2022-08-03T03:43:56.140Z,12.48
2022-08-03T03:44:56.856Z,12.48
2022-08-03T03:45:58.501Z,12.52
2022-08-03T03:47:00.465Z,12.52
2022-08-03T03:48:00.471Z,12.55
2022-08-03T03:48:58.378Z,12.56
2022-08-03T03:49:59.454Z,12.59
2022-08-03T03:50:59.354Z,12.63
2022-08-03T03:51:59.680Z,12.64
2022-08-03T03:53:00.600Z,12.69
2022-08-03T03:54:04.907Z,12.76
2022-08-03T03:55:02.416Z,12.84
2022-08-03T03:56:03.294Z,12.88
2022-08-03T03:57:04.012Z,12.88
2022-08-03T03:58:04.311Z,12.89
2022-08-03T03:59:04.422Z,12.92
2022-08-03T04:00:05.683Z,12.91
2022-08-03T04:01:05.051Z,12.93
2022-08-03T04:02:06.710Z,12.94
2022-08-03T04:03:05.992Z,12.93
2022-08-03T04:04:06.508Z,12.94
2022-08-03T04:05:08.459Z,12.96
2022-08-03T04:06:07.846Z,12.97
2022-08-03T04:07:07.660Z,12.99
2022-08-03T04:08:12.383Z,13
2022-08-03T04:09:11.153Z,13
2022-08-03T04:12:22.837Z,13.09
2022-08-03T04:13:21.817Z,13.15
2022-08-03T04:14:28.601Z,13.19
2022-08-03T04:15:24.293Z,13.24
2022-08-03T04:16:26.655Z,13.31
2022-08-03T04:17:28.402Z,13.35
2022-08-03T04:18:29.733Z,13.42
2022-08-03T04:20:33.050Z,13.48
2022-08-03T04:21:32.219Z,13.51
2022-08-03T04:22:32.739Z,13.57
2022-08-03T04:23:34.585Z,13.57
2022-08-03T04:24:35.323Z,13.64
2022-08-03T04:25:37.684Z,13.69
2022-08-03T04:26:39.532Z,13.78
2022-08-03T04:27:40.448Z,13.88
2022-08-03T04:28:41.482Z,13.98
2022-08-03T04:29:48.119Z,14.1
2022-08-03T04:30:45.392Z,14.14
2022-08-03T04:31:45.594Z,14.2
2022-08-03T04:32:45.961Z,14.35
2022-08-03T04:33:45.204Z,14.41
2022-08-03T04:34:44.700Z,14.45
2022-08-03T04:36:00.891Z,14.49
2022-08-03T04:37:51.479Z,14.62
2022-08-03T04:39:54.450Z,14.74
2022-08-03T04:40:56.924Z,14.8
2022-08-03T04:42:07.095Z,14.9
2022-08-03T04:42:58.174Z,15.03
2022-08-03T04:43:59.091Z,15.08
2022-08-03T04:45:01.428Z,15.15
2022-08-03T04:46:00.427Z,15.07
2022-08-03T04:47:00.448Z,15.09
2022-08-03T04:48:02.857Z,15.08
2022-08-03T04:49:01.883Z,15.09
2022-08-03T04:50:09.137Z,15.15
2022-08-03T04:51:05.082Z,15.2
2022-08-03T04:52:07.339Z,15.22
2022-08-03T04:53:08.158Z,15.3
2022-08-03T04:54:07.241Z,15.25
2022-08-03T04:55:08.180Z,15.35
2022-08-03T04:56:08.900Z,15.43
2022-08-03T04:57:08.699Z,15.53
2022-08-03T04:58:08.915Z,15.54
2022-08-03T04:59:12.705Z,15.6
2022-08-03T05:00:11.331Z,15.67
2022-08-03T05:01:10.883Z,15.68
2022-08-03T05:02:11.170Z,15.69
2022-08-03T05:03:20.211Z,15.72
2022-08-03T05:04:16.828Z,15.8
2022-08-03T05:05:17.362Z,15.82
2022-08-03T05:06:17.456Z,15.92
2022-08-03T05:07:22.700Z,15.95
2022-08-03T05:08:27.770Z,15.94
2022-08-03T05:09:49.942Z,16.01
2022-08-03T05:10:28.142Z,16.07
2022-08-03T05:11:28.460Z,16.18
2022-08-03T05:12:32.535Z,16.31
2022-08-03T05:13:30.374Z,16.24
2022-08-03T05:14:31.072Z,16.22
2022-08-03T05:15:31.142Z,16.26
2022-08-03T05:16:31.771Z,16.26
2022-08-03T05:17:32.179Z,16.32
2022-08-03T05:18:32.594Z,16.39
2022-08-03T05:19:32.889Z,16.45
2022-08-03T05:20:33.122Z,16.59
2022-08-03T05:21:52.596Z,16.67
2022-08-03T05:22:35.380Z,16.83
2022-08-03T05:23:35.910Z,16.92
2022-08-03T05:24:36.022Z,16.91
2022-08-03T05:25:36.631Z,16.92
2022-08-03T05:26:36.985Z,16.93
2022-08-03T05:27:37.157Z,16.96
2022-08-03T05:28:37.982Z,17.04
2022-08-03T05:28:51.301Z,17.09
2022-08-03T05:28:53.661Z,17.09
2022-08-03T05:28:58.767Z,17.16
2022-08-03T05:29:04.101Z,17.16
2022-08-03T05:29:08.702Z,17.16
2022-08-03T05:29:14.030Z,17.22
2022-08-03T05:29:18.888Z,17.22
2022-08-03T05:29:23.942Z,17.22
2022-08-03T05:29:28.881Z,17.25
2022-08-03T05:29:33.804Z,17.25
2022-08-03T05:30:34.752Z,17.28
2022-08-03T05:31:34.723Z,17.18
2022-08-03T05:32:35.359Z,17.21
2022-08-03T05:33:35.462Z,17.33
2022-08-03T05:34:36.028Z,17.41
2022-08-03T05:35:57.187Z,17.46
2022-08-03T05:36:39.381Z,17.56
2022-08-03T05:37:39.893Z,17.6
2022-08-03T05:38:42.140Z,17.37
2022-08-03T05:39:42.470Z,17.42
2022-08-03T05:40:46.976Z,17.53
2022-08-03T05:41:45.140Z,17.54
2022-08-03T05:42:45.561Z,17.32
2022-08-03T05:43:46.277Z,17.4
2022-08-03T05:44:46.281Z,17.44
2022-08-03T05:45:46.795Z,17.56
2022-08-03T05:46:48.951Z,17.58
2022-08-03T05:47:49.481Z,17.62
2022-08-03T05:48:50.102Z,17.71
2022-08-03T05:49:50.210Z,17.72
2022-08-03T05:50:50.531Z,17.76
2022-08-03T05:51:59.980Z,17.87
2022-08-03T05:52:56.054Z,17.93
2022-08-03T05:53:54.133Z,17.97
2022-08-03T05:54:56.247Z,17.99
2022-08-03T05:55:59.308Z,18.01
2022-08-03T05:56:56.090Z,18.09
2022-08-03T05:57:56.762Z,18.23
2022-08-03T05:58:56.727Z,18.38
2022-08-03T05:59:58.666Z,18.26
2022-08-03T06:00:57.548Z,18.19
2022-08-03T06:01:58.036Z,18.1
2022-08-03T06:02:58.381Z,18.15
2022-08-03T06:03:59.100Z,18.29
2022-08-03T06:04:59.115Z,18.46
2022-08-03T06:06:00.446Z,18.54
2022-08-03T06:06:59.951Z,18.49
2022-08-03T06:08:00.147Z,18.55
2022-08-03T06:09:00.774Z,18.53
2022-08-03T06:10:35.998Z,18.69
2022-08-03T06:11:03.762Z,18.9
2022-08-03T06:12:04.491Z,19.01
2022-08-03T06:13:04.180Z,19.03
2022-08-03T06:14:04.601Z,19.02
2022-08-03T06:15:05.741Z,18.96
2022-08-03T06:16:05.839Z,18.94
2022-08-03T06:17:05.540Z,18.99
2022-08-03T06:18:06.258Z,19
2022-08-03T06:19:06.585Z,19.12
2022-08-03T06:20:07.609Z,19.16
2022-08-03T06:21:11.047Z,19.22
2022-08-03T06:22:07.525Z,19.23
2022-08-03T06:23:07.946Z,19.29
2022-08-03T06:24:08.937Z,19.49
2022-08-03T06:25:12.814Z,19.6
2022-08-03T06:26:11.037Z,19.63
2022-08-03T06:27:11.137Z,19.85
2022-08-03T06:28:15.077Z,19.92
2022-08-03T06:29:11.972Z,19.98
2022-08-03T06:30:16.991Z,20.06
2022-08-03T06:31:17.301Z,19.95
2022-08-03T06:32:17.876Z,19.89
2022-08-03T06:33:18.028Z,20.01
2022-08-03T06:34:32.576Z,20.19
2022-08-03T06:35:22.923Z,20.24
2022-08-03T06:36:23.374Z,20.31
2022-08-03T06:37:23.790Z,20.17
2022-08-03T06:38:24.108Z,20.13
2022-08-03T06:39:24.523Z,20.2
2022-08-03T06:40:25.445Z,20.11
2022-08-03T06:41:26.575Z,20.13
2022-08-03T06:42:26.078Z,20.24
2022-08-03T06:43:26.151Z,20.34
2022-08-03T06:44:26.807Z,20.35
2022-08-03T06:45:31.678Z,20.37
2022-08-03T06:46:29.995Z,20.35
2022-08-03T06:47:30.104Z,20.56
2022-08-03T06:48:31.133Z,20.67
2022-08-03T06:49:31.067Z,20.53
2022-08-03T06:50:32.886Z,20.54
2022-08-03T06:52:03.849Z,20.62
2022-08-03T06:52:38.227Z,20.63
2022-08-03T06:53:36.399Z,20.7
2022-08-03T06:54:36.606Z,20.79
2022-08-03T06:55:40.754Z,20.89
2022-08-03T06:56:40.098Z,20.9
2022-08-03T06:57:40.406Z,20.88
2022-08-03T06:58:40.824Z,20.84
2022-08-03T07:00:09.903Z,20.76
2022-08-03T07:00:43.576Z,20.78
2022-08-03T07:01:44.108Z,20.91
2022-08-03T07:02:44.332Z,20.98
2022-08-03T07:03:47.562Z,21.11
2022-08-03T07:04:49.840Z,21.15
2022-08-03T07:05:50.209Z,20.99
2022-08-03T07:06:50.511Z,21.03
2022-08-03T07:07:51.025Z,21.01
2022-08-03T07:08:53.597Z,20.96
2022-08-03T07:09:57.115Z,20.91
2022-08-03T07:10:55.747Z,20.97
2022-08-03T07:11:55.857Z,21.02
2022-08-03T07:12:56.991Z,21.09
2022-08-03T07:13:56.696Z,21.24
2022-08-03T07:15:01.416Z,21.23
2022-08-03T07:15:59.789Z,21.22
2022-08-03T07:17:00.099Z,21.31
2022-08-03T07:18:00.607Z,21.18
2022-08-03T07:19:00.726Z,21.21
2022-08-03T07:20:04.319Z,21.26
2022-08-03T07:21:01.653Z,21.38
2022-08-03T07:22:04.218Z,21.5
2022-08-03T07:23:02.289Z,21.45
2022-08-03T07:24:02.491Z,21.39
2022-08-03T07:25:03.420Z,21.47
2022-08-03T07:26:03.232Z,21.66
2022-08-03T07:27:04.149Z,21.61
2022-08-03T07:28:04.462Z,21.48
2022-08-03T07:29:04.507Z,21.48
2022-08-03T07:30:08.478Z,21.55
2022-08-03T07:31:07.557Z,21.68
2022-08-03T07:32:07.979Z,21.75
2022-08-03T07:33:08.078Z,21.72
2022-08-03T07:34:08.361Z,21.72
2022-08-03T07:35:24.667Z,21.71
2022-08-03T07:36:12.910Z,21.76
2022-08-03T07:37:13.129Z,21.77
2022-08-03T07:38:13.539Z,21.66
2022-08-03T07:39:17.685Z,21.79
2022-08-03T07:40:15.620Z,21.76
2022-08-03T07:41:15.978Z,21.72
2022-08-03T07:42:16.444Z,21.7
2022-08-03T07:43:16.645Z,21.81
2022-08-03T07:44:17.379Z,21.78
2022-08-03T07:45:17.579Z,21.88
2022-08-03T07:46:17.705Z,21.85
2022-08-03T07:47:26.209Z,21.97
2022-08-03T07:48:18.113Z,22.02
2022-08-03T07:49:18.624Z,21.96
2022-08-03T07:50:19.261Z,21.95
2022-08-03T07:51:19.052Z,22.02
2022-08-03T07:52:19.620Z,21.87
2022-08-03T07:53:19.890Z,22.07
2022-08-03T07:54:20.001Z,22.24
2022-08-03T07:55:23.179Z,22.3
2022-08-03T07:56:20.730Z,22.2
2022-08-03T07:57:21.139Z,22.17
2022-08-03T07:58:24.203Z,22.19
2022-08-03T07:59:21.880Z,22.05
2022-08-03T08:00:22.190Z,22.16
2022-08-03T08:01:23.105Z,22.13
2022-08-03T08:02:22.820Z,22.1
2022-08-03T08:03:23.441Z,22.18
2022-08-03T08:04:23.659Z,22.12
2022-08-03T08:05:23.856Z,22.25
2022-08-03T08:06:24.136Z,22.33
2022-08-03T08:07:24.387Z,22.28
2022-08-03T08:08:24.810Z,21.97
2022-08-03T08:09:24.991Z,22.03
2022-08-03T08:10:25.523Z,22.2
2022-08-03T08:11:25.737Z,22.32
2022-08-03T08:12:26.065Z,22.44
2022-08-03T08:13:26.672Z,22.4
2022-08-03T08:14:26.678Z,22.13
2022-08-03T08:15:27.000Z,22.1
2022-08-03T08:16:27.509Z,22.22
2022-08-03T08:17:28.129Z,22.13
2022-08-03T08:18:28.158Z,22.03
2022-08-03T08:19:28.459Z,21.95
2022-08-03T08:21:52.951Z,21.94
2022-08-03T08:22:33.811Z,22.09
2022-08-03T08:23:42.307Z,22.25
2022-08-03T08:24:35.870Z,22.32
2022-08-03T08:25:36.279Z,22.48
2022-08-03T08:26:37.208Z,22.6
2022-08-03T08:28:41.617Z,22.38
2022-08-03T08:29:53.102Z,22.57
2022-08-03T08:30:43.087Z,22.55
2022-08-03T08:31:43.072Z,22.54
2022-08-03T08:32:43.489Z,22.66
2022-08-03T08:34:45.947Z,22.47
2022-08-03T08:35:46.263Z,22.36
2022-08-03T08:36:46.903Z,22.48
2022-08-03T08:37:50.796Z,22.65
2022-08-03T08:38:49.055Z,22.72
2022-08-03T08:39:49.673Z,22.76
2022-08-03T08:40:50.625Z,22.73
2022-08-03T08:41:53.346Z,22.41
2022-08-03T08:42:58.370Z,22.07
2022-08-03T08:43:51.458Z,22.23
2022-08-03T08:44:52.083Z,22.32
2022-08-03T08:45:54.122Z,22.57
2022-08-03T08:46:55.358Z,22.81
2022-08-03T08:47:59.912Z,22.99
2022-08-03T08:48:54.808Z,23.12
2022-08-03T08:50:09.158Z,23.08
2022-08-03T08:51:00.098Z,23.1
2022-08-03T08:52:01.168Z,23.22
2022-08-03T08:53:02.486Z,23.39
2022-08-03T08:54:02.386Z,23.03
2022-08-03T08:55:03.190Z,22.95
2022-08-03T08:56:02.190Z,23
2022-08-03T08:57:12.480Z,22.87
2022-08-03T08:58:06.398Z,23.09
2022-08-03T09:00:12.746Z,23.36
2022-08-03T09:01:10.262Z,23.37
2022-08-03T09:02:10.942Z,23.22
2022-08-03T09:03:11.968Z,23.22
2022-08-03T09:04:15.141Z,23.48
2022-08-03T09:05:17.184Z,23.5
2022-08-03T09:06:15.461Z,23.28
2022-08-03T09:07:20.739Z,23.41
2022-08-03T09:08:18.910Z,23.34
2022-08-03T09:10:01.332Z,23.26
2022-08-03T09:10:20.971Z,23.18
2022-08-03T09:11:22.552Z,23.33
2022-08-03T09:12:42.273Z,23.31
2022-08-03T09:13:25.430Z,23.13
2022-08-03T09:14:37.084Z,23.12
2022-08-03T09:15:31.690Z,23.28
2022-08-03T09:16:29.851Z,23.25
2022-08-03T09:17:45.432Z,23.15
2022-08-03T09:18:35.831Z,23.07
2022-08-03T09:19:36.533Z,23.11
2022-08-03T09:20:37.044Z,23.12
2022-08-03T09:21:37.823Z,23.26
2022-08-03T09:24:01.370Z,23.38
2022-08-03T09:25:43.322Z,23.79
2022-08-03T09:27:47.841Z,23.95
2022-08-03T09:29:55.126Z,23.6
2022-08-03T09:34:08.369Z,23.22
2022-08-03T09:35:05.398Z,23.18
2022-08-03T09:36:05.423Z,23.29
2022-08-03T09:37:13.262Z,23.32
2022-08-03T09:39:10.150Z,23.19
2022-08-03T09:40:08.496Z,23.29
2022-08-03T09:41:18.682Z,23.5
2022-08-03T09:42:18.867Z,23.62
2022-08-03T09:43:12.215Z,23.64
2022-08-03T09:44:24.427Z,23.67
2022-08-03T09:45:26.964Z,23.61
2022-08-03T09:46:14.496Z,23.46
2022-08-03T09:48:26.386Z,23.63
2022-08-03T09:49:18.848Z,23.84
2022-08-03T09:50:19.226Z,24.01
2022-08-03T09:52:17.971Z,24.1
2022-08-03T09:52:39.352Z,24.36
2022-08-03T09:53:23.235Z,24.65
2022-08-03T09:54:32.554Z,24.83
2022-08-03T09:56:34.218Z,24.64
2022-08-03T09:57:31.146Z,24.86
2022-08-03T09:58:31.866Z,24.87
2022-08-03T09:59:33.271Z,24.71
2022-08-03T10:00:32.204Z,24.85
2022-08-03T10:01:36.463Z,24.81
2022-08-03T10:02:34.046Z,24.96
2022-08-03T10:04:02.818Z,24.82
2022-08-03T10:05:39.405Z,24.77
2022-08-03T10:06:39.497Z,24.49
2022-08-03T10:07:48.408Z,24.57
2022-08-03T10:08:40.839Z,24.72
2022-08-03T10:10:49.609Z,24.32
2022-08-03T10:11:47.095Z,24.35
2022-08-03T10:12:47.473Z,24.45
2022-08-03T10:13:47.848Z,24.28
2022-08-03T10:14:48.469Z,24.23
2022-08-03T10:16:23.842Z,24.28
2022-08-03T10:16:50.520Z,24.56
2022-08-03T10:17:50.845Z,25.02
2022-08-03T10:18:51.352Z,25.35
2022-08-03T10:19:51.785Z,24.87
2022-08-03T10:23:00.184Z,24.48
2022-08-03T10:23:59.378Z,24.64
2022-08-03T10:26:03.380Z,24.08
2022-08-03T10:27:06.455Z,23.88
2022-08-03T10:28:05.767Z,24.15
2022-08-03T10:29:12.325Z,24.38
2022-08-03T10:30:08.426Z,24.28
2022-08-03T10:31:08.236Z,24.47
2022-08-03T10:35:20.851Z,24.81
2022-08-03T10:36:14.916Z,24.59
2022-08-03T10:37:17.370Z,24.47
2022-08-03T10:38:21.485Z,24.29
2022-08-03T10:39:22.718Z,24.45
2022-08-03T10:40:46.813Z,24.29
2022-08-03T10:41:26.123Z,24.23
2022-08-03T10:42:24.976Z,24.1
2022-08-03T10:44:33.198Z,23.98
2022-08-03T10:45:34.225Z,23.96
2022-08-03T10:46:33.632Z,23.9
2022-08-03T10:47:33.126Z,23.74
2022-08-03T10:48:33.629Z,23.88
2022-08-03T10:49:34.573Z,23.9
2022-08-03T10:50:33.237Z,24.02
2022-08-03T10:51:34.674Z,24.13
2022-08-03T10:52:35.113Z,24.21
2022-08-03T10:53:39.399Z,23.99
2022-08-03T10:54:45.556Z,23.75
2022-08-03T10:55:42.889Z,23.47
2022-08-03T10:56:49.792Z,23.44
2022-08-03T11:00:00.634Z,23.38
2022-08-03T11:00:53.453Z,23.67
2022-08-03T11:02:00.835Z,23.86
2022-08-03T11:11:26.203Z,24.9
2022-08-03T11:12:32.626Z,24.93
2022-08-03T11:13:23.465Z,25.05
2022-08-03T11:14:22.129Z,25.05
2022-08-03T11:15:33.915Z,25.09
2022-08-03T11:16:22.261Z,25.13
2022-08-03T11:17:22.352Z,25
2022-08-03T11:18:22.971Z,24.98
2022-08-03T11:24:03.470Z,24.8
2022-08-03T11:27:48.220Z,24.73
2022-08-03T11:28:49.367Z,24.9
2022-08-03T11:30:52.956Z,25.13
2022-08-03T11:31:53.268Z,25.08
2022-08-03T11:32:57.360Z,25.08
2022-08-03T11:36:02.832Z,25.23
2022-08-03T11:45:20.126Z,24.97
2022-08-03T11:46:29.782Z,25.23
2022-08-03T11:47:24.200Z,25.4
2022-08-03T11:48:23.381Z,25.58
2022-08-03T11:49:24.269Z,25.44
2022-08-03T11:50:24.110Z,25.5
2022-08-03T11:51:30.930Z,25.33
2022-08-03T11:52:35.385Z,25.35
2022-08-03T11:53:33.147Z,25.42
2022-08-03T11:54:34.702Z,25.24
2022-08-03T11:55:36.127Z,25.31
2022-08-03T11:59:16.705Z,25.16
2022-08-03T11:59:45.896Z,25
2022-08-03T12:00:46.477Z,24.96
2022-08-03T12:01:46.606Z,25
2022-08-03T12:03:51.837Z,25
2022-08-03T12:04:56.567Z,25.22
2022-08-03T12:05:54.706Z,25.2
2022-08-03T12:07:06.108Z,25.35
2022-08-03T12:08:03.779Z,25.29
2022-08-03T12:09:16.161Z,25.28
2022-08-03T12:10:14.312Z,25.14
2022-08-03T12:11:14.006Z,24.81
2022-08-03T12:12:16.377Z,24.86
2022-08-03T12:14:44.261Z,24.91
2022-08-03T12:16:23.978Z,24.97
2022-08-03T12:17:22.709Z,24.74
2022-08-03T12:18:23.813Z,24.57
2022-08-03T12:19:23.482Z,24.58
2022-08-03T12:20:34.741Z,24.55
2022-08-03T12:21:28.835Z,24.53
2022-08-03T12:22:34.989Z,24.82
2022-08-03T12:23:37.578Z,24.9
2022-08-03T12:25:41.645Z,25.28
2022-08-03T12:27:42.164Z,25.14
2022-08-03T12:28:50.064Z,25.41
2022-08-03T12:29:58.609Z,25.27
2022-08-03T12:30:52.732Z,25.48
2022-08-03T12:31:52.124Z,25.67
2022-08-03T12:37:05.452Z,24.91
2022-08-03T12:38:05.880Z,24.81
2022-08-03T12:39:07.934Z,24.7
2022-08-03T12:40:10.592Z,24.54
2022-08-03T12:41:10.201Z,24.33
2022-08-03T12:42:08.568Z,24.31
2022-08-03T12:44:10.845Z,23.89
2022-08-03T12:46:16.977Z,23.77
2022-08-03T12:47:15.360Z,23.93
2022-08-03T12:48:15.164Z,24.21
2022-08-03T12:49:16.590Z,24.48
2022-08-03T12:50:24.906Z,24.77
2022-08-03T12:51:17.341Z,24.91
2022-08-03T12:52:19.696Z,25.06
2022-08-03T12:53:29.233Z,25.1
2022-08-03T12:54:24.293Z,25.19
2022-08-03T12:55:23.717Z,25.24
2022-08-03T12:56:23.109Z,25.36
2022-08-03T12:57:23.111Z,25.31
2022-08-03T12:58:34.881Z,25.08
2022-08-03T12:59:32.454Z,24.96
2022-08-03T13:00:29.381Z,25.19
2022-08-03T13:02:28.987Z,25.5
2022-08-03T13:03:39.518Z,25.4
2022-08-03T13:04:35.645Z,25.51
2022-08-03T13:05:43.544Z,25.51
2022-08-03T13:06:35.965Z,25.35
2022-08-03T13:07:45.904Z,25.41
2022-08-03T13:08:38.752Z,25.25
2022-08-03T13:09:47.569Z,25.07
2022-08-03T13:10:39.996Z,24.97
2022-08-03T13:11:55.809Z,24.95
2022-08-03T13:13:46.669Z,25.12
2022-08-03T13:14:49.234Z,25.15
2022-08-03T13:15:48.055Z,24.93
2022-08-03T13:16:50.891Z,24.82
2022-08-03T13:17:48.124Z,24.76
2022-08-03T13:18:49.359Z,24.75
2022-08-03T13:19:49.874Z,24.65
2022-08-03T13:20:49.275Z,24.64
2022-08-03T13:22:02.140Z,24.38
2022-08-03T13:22:52.259Z,24.31
2022-08-03T13:23:52.665Z,24.24
2022-08-03T13:24:55.541Z,24.22
2022-08-03T13:25:55.786Z,24.21
2022-08-03T13:26:53.712Z,24.34
2022-08-03T13:28:04.740Z,24.45
2022-08-03T13:28:58.125Z,24.48
2022-08-03T13:29:58.954Z,24.75
2022-08-03T13:30:59.044Z,24.92
2022-08-03T13:31:59.083Z,24.95
2022-08-03T13:32:59.386Z,25.02
2022-08-03T13:33:59.902Z,24.94
2022-08-03T13:35:00.734Z,24.71
2022-08-03T13:36:00.632Z,24.66
2022-08-03T13:37:19.772Z,24.75
2022-08-03T13:38:02.253Z,24.9
2022-08-03T13:39:02.917Z,24.97
2022-08-03T13:40:05.643Z,24.92
2022-08-03T13:41:04.960Z,25.04
2022-08-03T13:42:04.256Z,24.94
2022-08-03T13:43:04.461Z,24.96
2022-08-03T13:44:26.721Z,24.99
2022-08-03T13:45:07.455Z,24.94
2022-08-03T13:46:07.251Z,24.9
2022-08-03T13:47:07.665Z,24.79
2022-08-03T13:48:08.183Z,24.83
2022-08-03T13:49:08.602Z,24.95
2022-08-03T13:50:09.107Z,25.01
2022-08-03T13:51:21.722Z,25.03
2022-08-03T13:52:10.260Z,25.12
2022-08-03T13:53:10.677Z,25.1
2022-08-03T13:54:10.993Z,25.2
2022-08-03T13:55:11.570Z,25
2022-08-03T13:56:11.622Z,25.06
2022-08-03T13:58:06.079Z,25.16
2022-08-03T13:58:14.638Z,25.24
2022-08-03T13:59:14.404Z,25.21
2022-08-03T14:00:26.671Z,25.26
2022-08-03T14:01:16.433Z,25
2022-08-03T14:02:16.879Z,24.99
2022-08-03T14:03:17.193Z,25.11
2022-08-03T14:04:22.261Z,25.16
2022-08-03T14:05:20.280Z,25.08
2022-08-03T14:06:21.151Z,24.86
2022-08-03T14:07:21.173Z,24.67
2022-08-03T14:08:21.012Z,24.65
2022-08-03T14:09:21.546Z,24.84
2022-08-03T14:10:21.854Z,25.04
2022-08-03T14:11:22.364Z,24.96
2022-08-03T14:12:22.386Z,24.89
2022-08-03T14:13:22.991Z,24.94
2022-08-03T14:14:23.205Z,24.93
2022-08-03T14:15:25.159Z,25.03
2022-08-03T14:16:24.136Z,25.08
2022-08-03T14:17:24.562Z,24.89
2022-08-03T14:18:27.951Z,24.9
2022-08-03T14:19:26.922Z,25
2022-08-03T14:20:37.215Z,24.83
2022-08-03T14:21:30.274Z,24.74
2022-08-03T14:22:30.629Z,24.8
2022-08-03T14:23:30.893Z,24.77
2022-08-03T14:24:31.256Z,24.97
2022-08-03T14:25:31.469Z,24.9
2022-08-03T14:26:36.284Z,24.78
2022-08-03T14:27:36.499Z,24.94
2022-08-03T14:28:36.814Z,25.02
2022-08-03T14:29:37.637Z,25.05
2022-08-03T14:30:37.547Z,25.09
2022-08-03T14:32:09.744Z,24.93
2022-08-03T14:32:40.634Z,24.98
2022-08-03T14:33:41.072Z,24.94
2022-08-03T14:34:41.460Z,24.9
2022-08-03T14:35:41.362Z,24.84
2022-08-03T14:36:42.091Z,24.86
2022-08-03T14:37:42.303Z,24.84
2022-08-03T14:38:42.474Z,24.85
2022-08-03T14:40:00.238Z,24.7
2022-08-03T14:40:43.253Z,24.83
2022-08-03T14:41:43.363Z,24.95
2022-08-03T14:42:43.874Z,24.83